Time;durP1;ratioP1;P1;durP2;ratioP2;P2;SDS_P1;SDS_P2;PMS_P1;PMS_P2;Temp;Humidity;BMP_temperature;BMP_pressure;BME280_temperature;BME280_humidity;BME280_pressure;Samples;Min_cycle;Max_cycle;Signal;HPM_P1;HPM_P2
2021/12/19 00:00:09;;;;;;;10.88;6.63;;;;;;;3.99;78.20;99225.31;5111607;28;20456;-63
2021/12/19 00:10:28;;;;;;;10.15;5.95;;;;;;;4.00;78.42;99201.69;5112091;28;20037;-63
2021/12/19 00:12:54;;;;;;;8.90;6.03;;;;;;;4.05;77.55;99220.81;5111778;28;20023;-63
2021/12/19 00:15:20;;;;;;;10.95;6.18;;;;;;;4.06;77.82;99214.31;5112250;28;20052;-63
2021/12/19 00:17:45;;;;;;;9.98;5.45;;;;;;;4.10;77.24;99212.78;5111647;28;20042;-63
2021/12/19 00:20:11;;;;;;;9.23;6.28;;;;;;;4.12;78.10;99209.84;5111769;28;20048;-63
2021/12/19 00:22:37;;;;;;;10.52;6.55;;;;;;;4.15;77.48;99220.22;5111883;28;20043;-63
2021/12/19 00:25:05;;;;;;;9.98;6.22;;;;;;;4.14;76.72;99205.84;5111886;28;20039;-63
2021/12/19 00:27:30;;;;;;;10.68;5.90;;;;;;;4.15;76.70;99209.38;5111817;28;20020;-63
2021/12/19 00:29:55;;;;;;;9.55;5.97;;;;;;;4.13;77.19;99201.47;5111768;28;20098;-63
2021/12/19 00:32:21;;;;;;;9.35;5.68;;;;;;;4.09;77.34;99202.16;5111929;28;20046;-63
2021/12/19 00:34:50;;;;;;;8.95;5.53;;;;;;;4.06;77.49;99198.03;5111833;28;20102;-63
2021/12/19 00:37:17;;;;;;;9.88;6.03;;;;;;;4.06;76.97;99197.22;5111891;28;20016;-63
2021/12/19 00:39:43;;;;;;;9.40;5.50;;;;;;;4.04;77.88;99189.31;5111914;28;20027;-63
2021/12/19 00:42:08;;;;;;;10.30;5.70;;;;;;;4.01;77.48;99181.63;5114631;27;20031;-63
2021/12/19 00:44:37;;;;;;;10.25;5.80;;;;;;;3.97;77.70;99191.28;5093762;28;20047;-63
2021/12/19 00:47:07;;;;;;;7.57;5.30;;;;;;;3.91;78.15;99190.34;5111307;28;20495;-64
2021/12/19 00:49:34;;;;;;;7.63;4.85;;;;;;;3.90;78.16;99177.84;5111709;28;20030;-63
2021/12/19 00:52:00;;;;;;;7.65;4.72;;;;;;;3.90;78.63;99182.44;5111802;28;20464;-63
2021/12/19 00:54:26;;;;;;;8.35;5.47;;;;;;;3.87;78.19;99179.13;5111912;28;20027;-63
2021/12/19 00:56:51;;;;;;;8.63;5.13;;;;;;;3.85;78.15;99175.00;5111735;28;20522;-63
2021/12/19 00:59:18;;;;;;;8.93;5.10;;;;;;;3.81;79.25;99163.81;5111218;28;20020;-63
2021/12/19 01:01:45;;;;;;;9.38;5.40;;;;;;;3.77;79.68;99167.22;5111679;28;20467;-63
2021/12/19 01:04:12;;;;;;;9.13;5.28;;;;;;;3.74;79.46;99176.66;5111189;28;20023;-63
2021/12/19 01:06:41;;;;;;;10.25;6.20;;;;;;;3.68;79.63;99167.53;5111289;28;20472;-63
2021/12/19 01:09:07;;;;;;;11.05;6.50;;;;;;;3.62;79.95;99165.78;5111191;28;20493;-63
2021/12/19 01:11:34;;;;;;;11.45;6.32;;;;;;;3.57;79.53;99163.75;5112154;28;20408;-63
2021/12/19 01:14:00;;;;;;;11.57;6.97;;;;;;;3.53;79.77;99156.31;5111270;28;20407;-63
2021/12/19 01:16:25;;;;;;;11.70;7.28;;;;;;;3.48;79.87;99153.47;5111279;28;20023;-63
2021/12/19 01:18:51;;;;;;;11.25;6.95;;;;;;;3.46;80.34;99147.47;5110891;28;20399;-63
2021/12/19 01:21:18;;;;;;;11.90;7.15;;;;;;;3.42;81.40;99139.78;5110188;28;20028;-62
2021/12/19 01:23:43;;;;;;;14.60;8.15;;;;;;;3.37;80.80;99139.66;5110609;28;20046;-63
2021/12/19 01:26:10;;;;;;;14.73;8.32;;;;;;;3.31;81.38;99132.44;5110270;28;20773;-62
2021/12/19 01:28:35;;;;;;;15.52;8.30;;;;;;;3.25;81.35;99134.22;5109673;28;20110;-62
2021/12/19 01:31:01;;;;;;;14.32;8.45;;;;;;;3.21;81.56;99110.53;5109664;28;20138;-62
2021/12/19 01:33:27;;;;;;;15.05;7.93;;;;;;;3.17;81.79;99104.72;5109979;28;20030;-62
2021/12/19 01:35:52;;;;;;;13.77;8.02;;;;;;;3.16;82.68;99108.47;5109755;28;20027;-62
2021/12/19 01:38:18;;;;;;;14.95;9.68;;;;;;;3.14;82.45;99099.75;5107785;28;20024;-62
2021/12/19 01:40:43;;;;;;;17.38;10.60;;;;;;;3.13;82.78;99103.53;5109706;28;20440;-62
2021/12/19 01:43:09;;;;;;;16.20;8.82;;;;;;;3.10;82.47;99088.56;5110202;28;20449;-63
2021/12/19 01:45:38;;;;;;;14.55;8.02;;;;;;;3.10;82.48;99082.31;5110695;28;20033;-62
2021/12/19 01:48:06;;;;;;;13.35;7.15;;;;;;;3.10;82.25;99075.00;5109188;28;20047;-62
2021/12/19 01:50:33;;;;;;;14.38;8.50;;;;;;;3.15;83.09;99087.84;5110489;28;20384;-63
2021/12/19 01:53:00;;;;;;;15.77;9.70;;;;;;;3.13;82.88;99077.25;5104211;28;20094;-62
2021/12/19 01:55:26;;;;;;;16.73;8.60;;;;;;;3.12;83.07;99069.34;5109048;28;20169;-62
2021/12/19 01:57:51;;;;;;;16.25;8.65;;;;;;;3.15;83.52;99063.47;5109902;28;20114;-62
2021/12/19 02:00:26;;;;;;;15.15;7.85;;;;;;;3.18;82.78;99065.72;5109437;28;20027;-62
2021/12/19 02:02:53;;;;;;;14.98;8.20;;;;;;;3.17;82.65;99066.78;5110044;28;20027;-62
2021/12/19 02:05:19;;;;;;;13.98;8.10;;;;;;;3.23;82.61;99076.69;5091353;28;20036;-61
2021/12/19 02:07:47;;;;;;;13.98;8.20;;;;;;;3.26;82.94;99065.38;5109484;28;20046;-62
2021/12/19 02:10:20;;;;;;;13.50;8.38;;;;;;;3.31;82.76;99056.53;5109962;28;20024;-62
2021/12/19 02:12:50;;;;;;;15.63;9.73;;;;;;;3.34;83.12;99042.50;5109088;28;20034;-62
2021/12/19 02:15:19;;;;;;;13.27;8.20;;;;;;;3.35;82.63;99049.59;5109083;28;20063;-62
2021/12/19 02:17:46;;;;;;;16.15;9.30;;;;;;;3.38;82.84;99034.75;5108723;28;20384;-62
2021/12/19 02:20:13;;;;;;;11.50;6.75;;;;;;;3.40;82.43;99019.88;5108508;28;20126;-61
2021/12/19 02:22:38;;;;;;;11.93;7.18;;;;;;;3.42;82.90;99033.22;5109298;28;20084;-62
2021/12/19 02:25:05;;;;;;;11.05;6.70;;;;;;;3.43;82.41;99021.31;5109635;28;20024;-62
2021/12/19 02:27:30;;;;;;;10.73;6.80;;;;;;;3.44;81.97;99022.97;5109523;28;20089;-62
2021/12/19 02:29:56;;;;;;;12.68;7.53;;;;;;;3.47;82.39;99013.53;5109441;28;20032;-62
2021/12/19 02:32:23;;;;;;;11.63;6.70;;;;;;;3.50;82.34;99005.72;5109498;28;20083;-62
2021/12/19 02:34:51;;;;;;;13.55;6.35;;;;;;;3.51;81.67;98988.41;5109136;28;20467;-62
2021/12/19 02:50:47;;;;;;;11.23;6.15;;;;;;;3.64;81.11;98978.38;5108501;28;20455;-62
2021/12/19 02:53:14;;;;;;;9.15;5.18;;;;;;;3.66;80.69;98981.66;5111488;28;20042;-62
2021/12/19 02:55:40;;;;;;;9.68;5.55;;;;;;;3.69;81.17;98964.91;5112656;28;20114;-62
2021/12/19 02:58:06;;;;;;;10.15;5.57;;;;;;;3.70;81.41;98961.16;5112964;28;20146;-62
2021/12/19 03:00:32;;;;;;;9.23;5.22;;;;;;;3.71;80.60;98950.03;5112556;28;20130;-61
2021/12/19 03:02:57;;;;;;;8.65;5.50;;;;;;;3.73;80.17;98938.97;5112710;28;20027;-62
2021/12/19 03:05:23;;;;;;;8.85;5.40;;;;;;;3.76;80.13;98937.66;5112685;28;20098;-62
2021/12/19 03:07:50;;;;;;;9.27;5.00;;;;;;;3.78;80.65;98933.66;5112610;28;20039;-62
2021/12/19 03:13:26;;;;;;;8.43;5.18;;;;;;;3.78;80.36;98930.94;5111683;28;20034;-62
2021/12/19 03:18:38;;;;;;;9.43;5.82;;;;;;;3.80;79.93;98914.41;5110785;28;20176;-62
2021/12/19 03:21:04;;;;;;;11.15;6.10;;;;;;;3.80;80.06;98908.97;5112077;28;20027;-62
2021/12/19 03:23:29;;;;;;;10.02;6.00;;;;;;;3.81;79.92;98910.63;5111767;28;20831;-62
2021/12/19 03:25:54;;;;;;;10.45;6.38;;;;;;;3.80;79.79;98890.81;5110301;28;20122;-62
2021/12/19 03:28:20;;;;;;;11.15;6.53;;;;;;;3.79;79.31;98881.03;5111677;28;20036;-62
2021/12/19 03:30:47;;;;;;;12.90;6.88;;;;;;;3.80;79.19;98869.13;5112255;28;20478;-62
2021/12/19 03:33:13;;;;;;;13.55;6.95;;;;;;;3.79;79.44;98855.78;5091375;28;20035;-61
2021/12/19 03:35:40;;;;;;;12.30;8.02;;;;;;;3.78;79.80;98843.28;5111138;28;20403;-62
2021/12/19 03:38:09;;;;;;;12.88;7.53;;;;;;;3.76;79.23;98851.66;5111050;27;20020;-62
2021/12/19 03:40:38;;;;;;;14.15;7.82;;;;;;;3.73;79.46;98844.81;5111433;27;20035;-62
2021/12/19 03:43:06;;;;;;;14.35;8.13;;;;;;;3.72;79.88;98839.66;5111514;28;20464;-62
2021/12/19 03:45:34;;;;;;;15.75;8.15;;;;;;;3.72;79.93;98842.38;5109813;27;20042;-61
2021/12/19 03:48:01;;;;;;;17.98;9.18;;;;;;;3.70;79.78;98847.22;5107518;28;20028;-62
2021/12/19 03:50:27;;;;;;;18.80;9.55;;;;;;;3.67;79.77;98845.78;5109922;28;20061;-62
2021/12/19 03:52:54;;;;;;;21.80;10.63;;;;;;;3.66;79.28;98840.63;5112917;27;20116;-62
2021/12/19 03:55:21;;;;;;;17.70;9.50;;;;;;;3.66;79.80;98835.19;5111273;28;20483;-62
2021/12/19 03:57:47;;;;;;;15.60;8.55;;;;;;;3.62;79.93;98834.03;5111251;28;20383;-62
2021/12/19 04:00:16;;;;;;;17.25;8.23;;;;;;;3.60;79.22;98822.59;5108542;28;20027;-61
2021/12/19 04:02:41;;;;;;;15.88;8.73;;;;;;;3.57;79.83;98813.88;5109730;28;20032;-62
2021/12/19 04:05:07;;;;;;;14.52;8.02;;;;;;;3.56;79.50;98801.38;5110217;27;20038;-62
2021/12/19 04:07:32;;;;;;;15.70;8.80;;;;;;;3.55;79.75;98791.59;5109877;28;20034;-61
2021/12/19 04:09:58;;;;;;;14.20;7.78;;;;;;;3.54;79.29;98789.13;5109684;28;20106;-61
2021/12/19 04:12:26;;;;;;;13.35;7.20;;;;;;;3.54;78.97;98783.72;5110262;28;20035;-62
2021/12/19 04:14:52;;;;;;;12.82;7.53;;;;;;;3.55;79.44;98779.94;5109846;28;20024;-62
2021/12/19 04:17:17;;;;;;;13.30;7.45;;;;;;;3.57;79.47;98781.31;5108571;28;20034;-61
2021/12/19 04:19:43;;;;;;;13.50;6.82;;;;;;;3.60;79.05;98779.19;5109542;28;20046;-61
2021/12/19 04:22:09;;;;;;;15.07;7.15;;;;;;;3.60;79.55;98774.59;5108213;28;20146;-62
2021/12/19 04:24:34;;;;;;;14.30;8.02;;;;;;;3.62;79.46;98775.19;5091155;28;20666;-62
2021/12/19 04:27:00;;;;;;;17.17;8.90;;;;;;;3.65;79.10;98776.56;5108857;28;20036;-62
2021/12/19 04:29:26;;;;;;;14.23;7.93;;;;;;;3.67;79.48;98774.44;5108747;28;20034;-62
2021/12/19 04:31:53;;;;;;;13.13;6.80;;;;;;;3.68;79.43;98762.53;5109442;28;20701;-61
2021/12/19 04:34:19;;;;;;;14.55;8.27;;;;;;;3.72;78.63;98750.13;5090817;28;20027;-62
2021/12/19 04:36:48;;;;;;;19.15;8.35;;;;;;;3.73;79.00;98765.34;5109030;28;20039;-62
2021/12/19 05:00:30;;;;;;;14.38;8.60;;;;;;;3.78;77.90;98756.47;5109938;28;20051;-62
2021/12/19 05:03:15;;;;;;;16.23;8.55;;;;;;;3.77;77.95;98746.66;5109407;28;20024;-62
2021/12/19 05:16:21;;;;;;;15.50;8.55;;;;;;;3.85;77.14;98728.13;5107009;28;20084;-62
2021/12/19 05:18:48;;;;;;;15.30;7.88;;;;;;;3.87;77.06;98719.72;5108757;28;20167;-61
2021/12/19 05:21:21;;;;;;;11.68;6.50;;;;;;;3.87;77.90;98717.00;5110081;28;20028;-61
2021/12/19 05:26:22;;;;;;;14.88;7.68;;;;;;;3.87;76.62;98709.69;5109797;28;20531;-61
2021/12/19 05:28:48;;;;;;;19.15;8.80;;;;;;;3.86;76.95;98705.34;5108364;28;20114;-61
2021/12/19 05:31:14;;;;;;;15.95;8.25;;;;;;;3.86;77.14;98709.94;5091558;28;20102;-61
2021/12/19 05:33:40;;;;;;;14.82;8.70;;;;;;;3.83;77.00;98705.84;5109798;28;20098;-62
2021/12/19 05:46:40;;;;;;;14.20;7.90;;;;;;;3.88;76.70;98700.47;5110875;28;20456;-63
2021/12/19 05:49:06;;;;;;;14.23;7.78;;;;;;;3.91;77.11;98701.88;5110285;28;20067;-62
2021/12/19 05:51:33;;;;;;;14.35;7.57;;;;;;;3.92;76.84;98713.53;5092685;28;20049;-62
2021/12/19 05:53:59;;;;;;;13.57;7.30;;;;;;;3.93;76.90;98707.06;5111174;28;20035;-63
2021/12/19 05:56:24;;;;;;;15.60;7.72;;;;;;;3.94;77.02;98698.69;5110699;28;20024;-62
2021/12/19 05:58:50;;;;;;;14.90;7.75;;;;;;;3.94;76.52;98704.09;5110019;28;20064;-63
2021/12/19 06:01:15;;;;;;;15.60;7.10;;;;;;;3.94;77.01;98714.13;5110766;28;20068;-63
2021/12/19 06:03:41;;;;;;;12.27;7.13;;;;;;;3.93;77.11;98721.47;5092118;28;20472;-63
2021/12/19 06:06:07;;;;;;;11.85;6.53;;;;;;;3.95;76.90;98729.34;5110847;28;20027;-63
2021/12/19 06:08:32;;;;;;;11.60;6.40;;;;;;;3.97;76.54;98709.03;5109549;28;20092;-63
2021/12/19 06:10:58;;;;;;;11.50;6.95;;;;;;;3.98;75.95;98718.00;5110753;28;20519;-63
2021/12/19 06:13:24;;;;;;;11.80;6.30;;;;;;;3.99;76.54;98722.34;5110600;28;20069;-63
2021/12/19 06:15:52;;;;;;;9.43;5.53;;;;;;;4.02;76.34;98728.13;5110354;28;20110;-63
2021/12/19 06:18:17;;;;;;;9.48;4.93;;;;;;;4.05;76.43;98715.94;5109839;28;20057;-63
2021/12/19 06:20:43;;;;;;;13.70;6.57;;;;;;;4.07;76.36;98724.66;5110488;28;20024;-63
2021/12/19 06:23:09;;;;;;;12.13;6.53;;;;;;;4.08;76.04;98729.03;5106386;28;20024;-62
2021/12/19 06:25:34;;;;;;;9.65;5.50;;;;;;;4.09;76.50;98722.53;5110017;28;20032;-62
2021/12/19 06:28:00;;;;;;;9.73;5.82;;;;;;;4.09;76.25;98725.25;5113190;28;20100;-62
2021/12/19 06:30:27;;;;;;;8.50;5.13;;;;;;;4.14;75.95;98717.19;5113152;28;20054;-61
2021/12/19 06:32:53;;;;;;;8.73;5.00;;;;;;;4.17;76.17;98726.72;5113192;28;20024;-63
2021/12/19 06:35:19;;;;;;;9.10;5.53;;;;;;;4.20;76.42;98711.84;5113733;28;20072;-63
2021/12/19 06:37:46;;;;;;;8.00;4.63;;;;;;;4.25;75.73;98712.72;5113101;28;20508;-62
2021/12/19 06:40:16;;;;;;;6.00;4.05;;;;;;;4.29;75.82;98703.00;5109257;28;20031;-63
2021/12/19 06:42:42;;;;;;;8.07;4.43;;;;;;;4.32;75.64;98710.66;5110271;28;20020;-63
2021/12/19 06:45:08;;;;;;;7.20;4.05;;;;;;;4.34;75.64;98698.72;5113256;28;20042;-62
2021/12/19 06:47:33;;;;;;;6.97;4.07;;;;;;;4.33;75.92;98706.03;5114075;28;20039;-63
2021/12/19 06:49:59;;;;;;;5.68;3.75;;;;;;;4.37;75.79;98699.03;5113730;28;20023;-62
2021/12/19 06:52:25;;;;;;;6.07;3.70;;;;;;;4.41;75.83;98702.91;5111867;28;20061;-63
2021/12/19 06:54:50;;;;;;;5.60;3.88;;;;;;;4.45;75.70;98698.63;5114078;28;20035;-63
2021/12/19 06:57:15;;;;;;;7.45;4.05;;;;;;;4.50;75.54;98691.63;5114007;28;20080;-62
2021/12/19 06:59:41;;;;;;;4.50;3.30;;;;;;;4.49;75.65;98688.06;5113340;28;20024;-63
2021/12/19 07:02:07;;;;;;;7.40;4.38;;;;;;;4.50;75.21;98684.28;5116795;27;20387;-62
2021/12/19 07:04:33;;;;;;;6.97;4.68;;;;;;;4.49;75.59;98681.81;5112524;28;20502;-62
2021/12/19 07:06:58;;;;;;;6.88;4.82;;;;;;;4.47;75.01;98682.09;5089448;28;20032;-63
2021/12/19 07:09:23;;;;;;;5.97;3.88;;;;;;;4.49;74.96;98673.69;5111085;28;20036;-62
2021/12/19 07:11:49;;;;;;;7.85;4.80;;;;;;;4.50;75.31;98669.88;5114015;28;20099;-62
2021/12/19 07:14:15;;;;;;;6.97;4.85;;;;;;;4.52;75.46;98665.84;5113506;28;20027;-63
2021/12/19 07:16:40;;;;;;;6.57;4.60;;;;;;;4.50;75.25;98667.16;5112858;28;20380;-63
2021/12/19 07:19:05;;;;;;;9.60;5.43;;;;;;;4.47;75.18;98663.88;5111930;28;20047;-63
2021/12/19 07:21:31;;;;;;;8.55;4.97;;;;;;;4.47;75.82;98654.94;5113409;28;20034;-63
2021/12/19 07:23:57;;;;;;;8.32;5.63;;;;;;;4.48;75.35;98648.44;5112597;28;20185;-63
2021/12/19 07:26:23;;;;;;;10.75;6.15;;;;;;;4.51;75.94;98645.19;5113164;28;20486;-63
2021/12/19 07:28:50;;;;;;;10.13;5.82;;;;;;;4.50;75.57;98651.69;5112293;28;20039;-63
2021/12/19 07:31:16;;;;;;;9.93;5.80;;;;;;;4.46;76.05;98637.81;5111946;28;20035;-63
2021/12/19 07:33:43;;;;;;;10.32;6.20;;;;;;;4.42;75.77;98639.38;5112018;28;20028;-63
2021/12/19 07:36:09;;;;;;;17.40;9.02;;;;;;;4.43;76.15;98634.78;5112777;28;20055;-63
2021/12/19 07:38:47;;;;;;;16.42;7.85;;;;;;;4.40;75.80;98630.66;5112469;28;20056;-63
2021/12/19 07:41:12;;;;;;;15.65;8.70;;;;;;;4.41;75.72;98635.00;5093340;28;20020;-63
2021/12/19 07:43:37;;;;;;;19.55;9.38;;;;;;;4.40;76.21;98622.50;5113043;28;20026;-63
2021/12/19 07:46:03;;;;;;;23.50;10.38;;;;;;;4.40;76.78;98627.94;5112601;28;20031;-64
2021/12/19 07:48:28;;;;;;;24.33;12.05;;;;;;;4.43;76.75;98626.63;5110064;28;20032;-64
2021/12/19 07:50:54;;;;;;;26.25;13.73;;;;;;;4.42;77.26;98642.09;5111988;28;20020;-61
2021/12/19 07:53:20;;;;;;;13.95;8.45;;;;;;;4.44;77.39;98633.69;5112416;28;20034;-62
2021/12/19 07:55:45;;;;;;;11.95;6.72;;;;;;;4.47;77.00;98625.06;5112869;28;20031;-61
2021/12/19 07:58:11;;;;;;;15.15;9.82;;;;;;;4.49;77.46;98632.94;5114163;27;20365;-61
2021/12/19 08:00:36;;;;;;;12.93;7.85;;;;;;;4.51;77.38;98634.31;5113453;27;20028;-61
2021/12/19 08:03:02;;;;;;;21.77;12.85;;;;;;;4.56;77.34;98620.81;5112052;28;20039;-61
2021/12/19 08:05:27;;;;;;;12.27;6.82;;;;;;;4.58;78.01;98636.88;5110666;28;20045;-62
2021/12/19 08:08:00;;;;;;;17.83;10.05;;;;;;;4.59;78.18;98641.22;5112275;28;20027;-62
2021/12/19 08:12:59;;;;;;;22.52;14.15;;;;;;;4.57;78.11;98622.44;5111938;28;20036;-62
2021/12/19 08:15:24;;;;;;;11.00;7.22;;;;;;;4.49;79.54;98631.03;5114207;27;20062;-61
2021/12/19 08:17:50;;;;;;;23.25;9.40;;;;;;;4.40;79.25;98627.13;5109815;28;20456;-62
2021/12/19 08:20:17;;;;;;;14.43;6.95;;;;;;;4.31;81.22;98626.72;5109895;28;20043;-60
2021/12/19 08:22:43;;;;;;;22.77;10.27;;;;;;;4.25;81.41;98639.41;5111218;28;20024;-61
2021/12/19 08:25:09;;;;;;;22.05;10.23;;;;;;;4.20;81.34;98633.09;5111673;28;20073;-61
2021/12/19 08:27:36;;;;;;;19.30;10.05;;;;;;;4.17;81.48;98635.25;5110824;28;20035;-61
2021/12/19 08:30:04;;;;;;;19.52;10.52;;;;;;;4.16;82.45;98633.59;5108220;28;20080;-61
2021/12/19 08:32:30;;;;;;;11.63;6.82;;;;;;;4.12;82.40;98632.44;5109164;28;20142;-61
2021/12/19 08:34:55;;;;;;;12.48;7.20;;;;;;;4.09;82.20;98632.94;5111515;28;20111;-61
2021/12/19 08:37:21;;;;;;;14.55;7.32;;;;;;;4.10;83.23;98636.47;5111279;28;20111;-61
2021/12/19 08:39:46;;;;;;;9.93;6.35;;;;;;;4.09;82.74;98632.13;5109868;28;20448;-61
2021/12/19 08:42:12;;;;;;;14.40;6.75;;;;;;;4.07;84.02;98626.16;5110360;28;20042;-61
2021/12/19 08:44:38;;;;;;;8.77;5.38;;;;;;;4.08;83.07;98620.44;5111019;28;20038;-61
2021/12/19 08:47:04;;;;;;;8.00;4.85;;;;;;;4.11;83.42;98633.53;5111685;28;20039;-61
2021/12/19 08:49:30;;;;;;;8.40;5.45;;;;;;;4.11;83.61;98638.13;5110557;28;20119;-61
2021/12/19 08:51:55;;;;;;;16.88;7.80;;;;;;;4.11;84.43;98624.53;5110415;28;21826;-61
2021/12/19 08:54:22;;;;;;;19.88;9.52;;;;;;;4.11;83.54;98625.38;5109651;28;20464;-61
2021/12/19 08:56:50;;;;;;;20.60;8.18;;;;;;;4.09;83.98;98622.09;5090513;28;20028;-61
2021/12/19 08:59:16;;;;;;;14.73;7.47;;;;;;;4.08;83.77;98625.88;5107335;28;20020;-61
2021/12/19 09:01:41;;;;;;;11.77;5.82;;;;;;;4.06;84.64;98619.88;5092145;28;20027;-61
2021/12/19 09:04:07;;;;;;;8.68;4.93;;;;;;;4.06;84.68;98617.16;5111104;28;20364;-60
2021/12/19 09:06:33;;;;;;;14.18;6.15;;;;;;;4.04;84.87;98621.22;5112004;27;20502;-61
2021/12/19 09:08:59;;;;;;;10.18;5.38;;;;;;;4.05;83.69;98614.72;5112621;27;20027;-62
2021/12/19 09:11:25;;;;;;;9.07;4.65;;;;;;;4.09;84.57;98613.13;5107314;28;20472;-61
2021/12/19 09:13:50;;;;;;;8.52;4.47;;;;;;;4.11;84.19;98619.94;5111516;27;20480;-61
2021/12/19 09:16:16;;;;;;;10.90;6.00;;;;;;;4.11;84.41;98614.53;5111546;28;20027;-61
2021/12/19 09:18:42;;;;;;;10.27;5.90;;;;;;;4.10;84.27;98612.03;5109914;28;20044;-60
2021/12/19 09:21:08;;;;;;;12.10;6.90;;;;;;;4.10;84.56;98609.31;5111451;28;20102;-61
2021/12/19 09:23:34;;;;;;;11.15;6.95;;;;;;;4.12;84.39;98618.03;5106914;28;20111;-61
2021/12/19 09:26:00;;;;;;;17.60;9.93;;;;;;;4.12;83.63;98615.34;5111501;27;20554;-61
2021/12/19 09:28:26;;;;;;;19.10;8.75;;;;;;;4.13;83.83;98612.38;5110379;28;20042;-60
2021/12/19 09:30:51;;;;;;;14.65;8.13;;;;;;;4.14;84.68;98611.31;5093432;28;20114;-60
2021/12/19 09:33:16;;;;;;;19.40;8.90;;;;;;;4.14;84.23;98600.44;5111564;28;20032;-60
2021/12/19 09:35:42;;;;;;;9.55;6.00;;;;;;;4.16;84.45;98605.63;5111318;28;20035;-61
2021/12/19 09:38:08;;;;;;;9.00;5.40;;;;;;;4.15;84.77;98612.97;5109147;28;20026;-60
2021/12/19 09:40:36;;;;;;;18.08;7.63;;;;;;;4.13;84.53;98601.53;5109118;28;20020;-61
2021/12/19 09:43:21;;;;;;;19.88;8.32;;;;;;;4.13;84.61;98592.53;5111180;28;20035;-61
2021/12/19 09:45:57;;;;;;;10.27;5.70;;;;;;;4.13;84.67;98595.25;5108536;28;20506;-61
2021/12/19 09:48:22;;;;;;;15.02;8.68;;;;;;;4.16;84.32;98590.16;5093739;28;20036;-61
2021/12/19 09:50:48;;;;;;;21.42;13.20;;;;;;;4.22;84.23;98582.09;5108296;28;20028;-61
2021/12/19 09:53:13;;;;;;;24.67;14.80;;;;;;;4.28;84.89;98571.03;5093211;28;20028;-61
2021/12/19 09:55:40;;;;;;;45.90;29.08;;;;;;;4.33;84.30;98567.56;5111510;28;20114;-61
2021/12/19 09:58:06;;;;;;;19.88;10.20;;;;;;;4.38;84.08;98575.78;5110946;28;20486;-60
2021/12/19 10:00:31;;;;;;;29.33;11.55;;;;;;;4.38;84.03;98569.53;5112604;27;20020;-61
2021/12/19 10:02:57;;;;;;;30.50;13.43;;;;;;;4.39;83.96;98569.25;5112076;27;20549;-61
2021/12/19 10:05:27;;;;;;;28.33;13.13;;;;;;;4.38;84.05;98556.75;5113576;28;20015;-61
2021/12/19 10:07:57;;;;;;;;;;;;;;;4.38;83.71;98550.53;5114695;28;20612;-61
2021/12/19 10:10:58;;;;;;;;;;;;;;;4.40;83.78;98538.31;5116740;27;19923;-60
2021/12/19 10:13:36;;;;;;;14.98;7.75;;;;;;;4.35;84.07;98543.69;5091061;28;21211;-61
2021/12/19 10:16:24;;;;;;;16.38;8.50;;;;;;;4.32;84.03;98536.03;5112006;28;20020;-61
2021/12/19 10:18:54;;;;;;;11.75;6.80;;;;;;;4.30;83.87;98532.75;5113945;28;20048;-60
2021/12/19 10:21:21;;;;;;;14.93;7.38;;;;;;;4.30;83.98;98530.88;5114903;27;20383;-61
2021/12/19 10:23:46;;;;;;;16.38;7.82;;;;;;;4.30;83.82;98525.44;5115212;27;20024;-61
2021/12/19 10:26:13;;;;;;;13.90;8.00;;;;;;;4.32;84.00;98523.31;5096736;28;20472;-61
2021/12/19 10:28:59;;;;;;;17.35;8.30;;;;;;;4.35;84.31;98523.88;5113562;28;20027;-61
2021/12/19 10:31:28;;;;;;;23.38;10.07;;;;;;;4.35;83.58;98518.44;5113134;28;20020;-61
2021/12/19 10:33:54;;;;;;;20.07;10.50;;;;;;;4.34;83.64;98517.59;5111930;28;20102;-61
2021/12/19 10:36:19;;;;;;;16.83;8.10;;;;;;;4.35;83.86;98511.09;5111226;28;20052;-61
2021/12/19 10:38:51;;;;;;;19.73;9.60;;;;;;;4.35;83.73;98513.00;5095164;27;20037;-61
2021/12/19 10:41:32;;;;;;;13.73;7.20;;;;;;;4.32;83.77;98498.88;5093056;28;20026;-60
2021/12/19 10:44:07;;;;;;;14.70;7.85;;;;;;;4.30;84.17;98486.59;5110935;28;20467;-61
2021/12/19 10:46:40;;;;;;;12.48;7.68;;;;;;;4.29;84.43;98487.69;5111871;28;20638;-60
2021/12/19 10:49:25;;;;;;;16.30;8.57;;;;;;;4.31;83.91;98480.09;5113469;27;20028;-60
2021/12/19 10:51:51;;;;;;;15.45;7.63;;;;;;;4.30;84.52;98476.56;5113832;27;20030;-60
2021/12/19 10:54:16;;;;;;;15.07;7.57;;;;;;;4.31;84.65;98470.06;5113431;28;20034;-60
2021/12/19 10:56:42;;;;;;;11.35;6.80;;;;;;;4.35;84.18;98469.56;5113340;27;20111;-61
2021/12/19 10:59:15;;;;;;;21.55;11.02;;;;;;;4.36;84.24;98463.06;5094389;28;20349;-61
2021/12/19 11:01:44;;;;;;;20.88;10.43;;;;;;;4.37;83.84;98465.50;5111892;28;20128;-61
2021/12/19 11:04:10;;;;;;;12.03;7.20;;;;;;;4.35;84.22;98451.38;5113063;27;20027;-61
2021/12/19 11:06:42;;;;;;;11.68;6.72;;;;;;;4.34;84.29;98451.63;5111761;28;20098;-62
2021/12/19 11:09:14;;;;;;;15.27;8.55;;;;;;;4.34;83.96;98444.28;5109963;28;20050;-61
2021/12/19 11:11:56;;;;;;;12.57;7.53;;;;;;;4.34;83.74;98447.00;5093338;28;20023;-61
2021/12/19 11:14:33;;;;;;;18.45;8.68;;;;;;;4.35;83.66;98436.97;5111010;28;20098;-61
2021/12/19 11:16:59;;;;;;;14.70;7.85;;;;;;;4.37;83.67;98435.63;5112633;28;20027;-61
2021/12/19 11:19:26;;;;;;;15.55;7.68;;;;;;;4.37;83.69;98432.91;5112397;28;20579;-60
2021/12/19 11:21:52;;;;;;;14.02;7.18;;;;;;;4.34;84.07;98430.72;5113571;27;20111;-61
2021/12/19 11:24:20;;;;;;;15.68;7.28;;;;;;;4.33;83.54;98418.22;5112306;27;20114;-61
2021/12/19 11:26:50;;;;;;;18.50;8.27;;;;;;;4.30;83.51;98418.72;5112368;27;20115;-61
2021/12/19 11:29:16;;;;;;;15.02;7.35;;;;;;;4.30;84.09;98426.88;5110392;28;20413;-62
2021/12/19 11:31:46;;;;;;;16.73;6.47;;;;;;;4.32;83.46;98422.84;5111757;28;20102;-61
2021/12/19 11:34:11;;;;;;;12.35;5.15;;;;;;;4.34;83.92;98419.84;5113284;27;20089;-61
2021/12/19 11:36:41;;;;;;;10.10;5.88;;;;;;;4.34;83.25;98409.00;5094478;28;20028;-61
2021/12/19 11:39:08;;;;;;;15.30;7.70;;;;;;;4.36;83.68;98415.00;5112659;27;20015;-60
2021/12/19 11:41:35;;;;;;;20.23;10.32;;;;;;;4.39;83.08;98414.47;5112379;28;20015;-62
2021/12/19 11:44:04;;;;;;;17.13;8.27;;;;;;;4.40;82.80;98413.41;5112147;27;20018;-63
2021/12/19 11:46:49;;;;;;;9.07;5.70;;;;;;;4.42;82.75;98400.38;5105118;28;20148;-62
2021/12/19 11:49:21;;;;;;;9.63;6.72;;;;;;;4.38;83.14;98399.25;5105262;27;20843;-63
2021/12/19 11:51:47;;;;;;;7.47;5.03;;;;;;;4.38;83.57;98385.69;5104375;28;20070;-63
2021/12/19 11:54:16;;;;;;;20.55;11.30;;;;;;;4.39;82.74;98391.94;5112794;27;20034;-62
2021/12/19 11:57:07;;;;;;;10.63;5.78;;;;;;;4.41;83.15;98382.47;5111637;27;20027;-63
2021/12/19 11:59:33;;;;;;;22.83;12.02;;;;;;;4.42;83.42;98394.16;5110596;27;20027;-62
2021/12/19 12:02:24;;;;;;;11.75;9.38;;;;;;;4.42;83.17;98383.28;5113459;27;20076;-62
2021/12/19 12:05:14;;;;;;;7.38;4.47;;;;;;;4.39;82.40;98381.91;5111683;28;20357;-62
2021/12/19 12:07:58;;;;;;;;;;;;;;;4.34;82.18;98390.00;5094003;28;20085;-62
2021/12/19 12:10:24;;;;;;;28.15;19.98;;;;;;;4.30;82.34;98373.41;5111900;28;20328;-62
2021/12/19 12:12:50;;;;;;;11.82;9.38;;;;;;;4.29;82.91;98370.94;5112485;27;20077;-62
2021/12/19 12:15:15;;;;;;;16.52;14.13;;;;;;;4.26;82.49;98374.19;5110320;28;20015;-62
2021/12/19 12:17:46;;;;;;;7.97;5.95;;;;;;;4.22;82.63;98360.28;5108077;28;20024;-62
2021/12/19 12:20:17;;;;;;;8.82;5.43;;;;;;;4.19;82.82;98357.28;5109370;28;20055;-62
2021/12/19 12:22:56;;;;;;;7.18;6.25;;;;;;;4.18;83.04;98348.31;5108749;28;20110;-62
2021/12/19 12:25:34;;;;;;;3.85;2.60;;;;;;;4.12;83.01;98341.19;5108321;28;20475;-62
2021/12/19 12:28:05;;;;;;;7.40;3.80;;;;;;;4.07;83.23;98341.97;5107078;28;20030;-62
2021/12/19 12:30:37;;;;;;;4.90;1.92;;;;;;;4.01;83.23;98343.81;5107779;27;20040;-62
2021/12/19 12:33:05;;;;;;;10.73;5.25;;;;;;;3.97;82.73;98350.81;5104950;28;20111;-62
2021/12/19 12:35:34;;;;;;;20.88;7.50;;;;;;;3.93;83.09;98351.56;5110087;28;20050;-62
2021/12/19 12:38:01;;;;;;;13.77;6.47;;;;;;;3.87;83.85;98354.22;5107722;28;20028;-62
2021/12/19 12:42:57;;;;;;;4.78;3.80;;;;;;;3.82;84.27;98348.78;5108913;28;20106;-61
2021/12/19 12:45:23;;;;;;;5.15;3.17;;;;;;;3.78;84.36;98342.22;5108161;28;20024;-62
2021/12/19 12:47:49;;;;;;;5.15;3.70;;;;;;;3.76;84.88;98336.22;5108881;28;20051;-62
2021/12/19 12:50:15;;;;;;;11.02;6.07;;;;;;;3.76;83.88;98336.22;5109022;28;20059;-72
2021/12/19 12:52:40;;;;;;;15.48;6.38;;;;;;;3.76;84.08;98322.66;5109064;28;20468;-71
2021/12/19 12:55:06;;;;;;;13.93;6.38;;;;;;;3.80;84.10;98340.06;5109524;28;20030;-72